Data for 07/04/2017

Time Sea-Level Adjusted Pressure Absolute Pressure Temperature Relative Humidity Dew Point   
(mb) (inHg) (mb) (inHg) (C) (F) (%) (C) (F)
00:05 1020 30.12 850 25.1 21.1 70 38 6.3 43.4
00:10 1020 30.12 850 25.1 21 69.9 42 7.9 46.2
00:15 1020 30.12 850 25.1 20.5 69 45 8.4 47
00:20 1020 30.12 850 25.1 19.8 67.7 45 7.6 45.7
00:25 1021 30.15 850 25.1 19.7 67.4 40 6 42.8
00:30 1021 30.15 850 25.1 20.1 68.2 43 7.4 45.4
00:35 1021 30.15 850 25.1 19.6 67.3 41 6.2 43.2
00:40 1021 30.15 850 25.1 19.6 67.4 41 6.2 43.1
00:45 1021 30.15 850 25.1 20 68 38 5.5 41.8
00:50 1021 30.15 850 25.1 20.2 68.3 39 6 42.7
00:55 1021 30.15 850 25.1 20.1 68.1 39 5.8 42.5
01:00 1021 30.15 850 25.1 20.2 68.3 39 5.9 42.7
01:05 1021 30.15 850 25.1 20.1 68.2 40 6.4 43.4
01:10 1021 30.15 850 25.1 20 68 39 5.9 42.7
01:15 1021 30.15 850 25.1 19.7 67.5 41 6.3 43.3
01:20 1021 30.15 850 25.1 19.3 66.7 42 6.3 43.4
01:25 1021 30.15 850 25.1 18.9 66.1 45 6.9 44.4
01:30 1021 30.15 850 25.1 18.5 65.3 47 7.2 44.9
01:35 1021 30.15 850 25.1 18 64.4 48 6.9 44.5
01:40 1021 30.15 850 25.1 17.9 64.2 49 7.1 44.8
01:45 1021 30.15 850 25.1 17.7 63.9 49 6.9 44.4
01:50 1021 30.15 850 25.1 17.4 63.4 47 6.1 43
01:55 1021 30.15 850 25.1 17.6 63.6 46 6 42.8
02:00 1021 30.15 850 25.1 17.6 63.6 46 5.8 42.5
02:05 1021 30.15 850 25.1 17.7 63.9 45 5.8 42.4
02:10 1021 30.15 850 25.1 17.7 63.9 44 5.6 42
02:15 1021 30.15 850 25.1 17.8 64.1 42 4.9 40.8
02:20 1021 30.15 850 25.1 17.8 64.1 44 5.6 42.1
02:25 1021 30.15 850 25.1 17.5 63.5 46 5.7 42.3
02:30 1021 30.15 850 25.1 17.2 62.9 47 5.9 42.7
02:35 1021 30.15 850 25.1 16.8 62.3 49 6.1 43
02:40 1021 30.15 850 25.1 16.5 61.8 51 6.4 43.5
02:45 1021 30.15 850 25.1 16.2 61.2 52 6.3 43.4
02:50 1021 30.15 850 25.1 16.1 61 51 6.1 43.1
02:55 1021 30.15 851 25.13 16 60.9 51 6.1 43
03:00 1021 30.15 851 25.13 16 60.8 51 5.9 42.5
03:05 1021 30.15 851 25.13 16 60.7 51 6 42.8
03:10 1021 30.15 851 25.13 15.8 60.5 51 5.8 42.4
03:15 1021 30.15 851 25.13 15.9 60.7 50 5.5 41.9
03:20 1021 30.15 851 25.13 16.1 60.9 48 5.2 41.4
03:25 1021 30.15 851 25.13 16.1 60.9 48 5.1 41.2
03:30 1021 30.15 851 25.13 16 60.8 47 4.7 40.5
03:35 1021 30.15 851 25.13 16 60.8 47 4.7 40.5
03:40 1022 30.18 851 25.13 16 60.8 47 4.7 40.5
03:45 1022 30.18 851 25.13 16 60.7 46 4.5 40.2
03:50 1022 30.18 851 25.13 16.1 61 44 4 39.2
03:55 1022 30.18 851 25.13 16.2 61.1 44 3.9 39.1
04:00 1022 30.18 851 25.13 16 60.9 44 3.8 38.9
04:05 1022 30.18 851 25.13 16.5 61.6 41 3.4 38.2
04:10 1022 30.18 851 25.13 16.7 62.1 42 3.8 38.9
04:15 1022 30.18 851 25.13 16.4 61.5 43 4 39.2
04:20 1022 30.18 851 25.13 16.2 61.2 44 4 39.3
04:25 1022 30.18 851 25.13 15.9 60.7 45 4.1 39.4
04:30 1022 30.18 851 25.13 15.6 60.1 46 4.1 39.4
04:35 1022 30.18 851 25.13 15.4 59.7 46 3.9 39
04:40 1022 30.18 851 25.13 15.5 59.9 43 3.2 37.8
04:45 1022 30.18 851 25.13 15.6 60.1 44 3.5 38.2
04:50 1022 30.18 851 25.13 15.7 60.2 43 3.3 37.9
04:55 1022 30.18 851 25.13 15.9 60.6 42 3.1 37.7
05:00 1022 30.18 851 25.13 15.8 60.4 44 3.6 38.5
05:05 1022 30.18 851 25.13 15.2 59.4 47 4.1 39.4
05:10 1022 30.18 851 25.13 14.8 58.6 49 4.2 39.6
05:15 1022 30.18 851 25.13 14.4 58 51 4.4 39.9
05:20 1022 30.18 851 25.13 14.2 57.5 51 4.2 39.6
05:25 1022 30.18 851 25.13 14.2 57.5 50 3.9 39
05:30 1022 30.18 851 25.13 14.2 57.6 48 3.4 38.1
05:35 1022 30.18 851 25.13 14.6 58.3 45 3 37.4
05:40 1022 30.18 852 25.16 15.1 59.2 43 2.7 36.9
05:45 1022 30.18 852 25.16 15.6 60 41 2.4 36.4
05:50 1022 30.18 851 25.13 15.9 60.6 39 2.2 36
05:55 1022 30.18 851 25.13 15.8 60.4 42 3.1 37.6
06:00 1022 30.18 851 25.13 15.1 59.1 45 3.4 38.2
06:05 1022 30.18 851 25.13 14.6 58.2 47 3.3 38
06:10 1022 30.18 851 25.13 14.4 57.9 47 3.4 38.1
06:15 1022 30.18 852 25.16 14.6 58.2 46 3.2 37.7
06:20 1022 30.18 852 25.16 14.7 58.5 46 3.2 37.8
06:25 1022 30.18 852 25.16 14.6 58.2 46 3.2 37.8
06:30 1022 30.18 852 25.16 14.5 58.1 47 3.3 38
06:35 1022 30.18 852 25.16 14.5 58 47 3.5 38.2
06:40 1022 30.18 852 25.16 14.4 57.9 47 3.4 38.2
06:45 1022 30.18 851 25.13 14.4 58 47 3.3 37.9
06:50 1022 30.18 852 25.16 14.6 58.2 46 3.2 37.7
06:55 1022 30.18 852 25.16 15 59 45 3.2 37.7
07:00 1022 30.18 852 25.16 15.4 59.6 43 3.1 37.5
07:05 1022 30.18 852 25.16 15.4 59.6 44 3.3 37.9
07:10 1023 30.21 852 25.16 15.4 59.7 44 3.2 37.8
07:15 1023 30.21 852 25.16 15.6 60 43 3.2 37.7
07:20 1023 30.21 852 25.16 15.9 60.7 42 3.3 37.9
07:25 1023 30.21 852 25.16 16.2 61.2 44 3.9 39.1
07:30 1023 30.21 852 25.16 16.4 61.4 42 3.6 38.4
07:35 1023 30.21 852 25.16 16.4 61.6 42 3.5 38.3
07:40 1023 30.21 852 25.16 16.5 61.8 49 6 42.9
07:45 1023 30.21 852 25.16 16.9 62.4 43 4.5 40.1
07:50 1023 30.21 852 25.16 17 62.5 47 5.8 42.5
07:55 1023 30.21 852 25.16 17.6 63.7 40 3.9 39
08:00 1023 30.21 852 25.16 17.6 63.7 39 3.6 38.6
08:05 1023 30.21 852 25.16 17.8 64.1 38 3.4 38.2
08:10 1023 30.21 852 25.16 18 64.4 38 3.6 38.4
08:15 1023 30.21 852 25.16 18.3 65 41 4.9 40.8
08:20 1023 30.21 852 25.16 19.1 66.3 38 4.7 40.5
08:25 1023 30.21 852 25.16 19.5 67.1 35 3.7 38.6
08:30 1023 30.21 852 25.16 20 68 33 3.3 38
08:35 1023 30.21 852 25.16 20.1 68.2 27 0.7 33.2
08:40 1023 30.21 852 25.16 20.6 69.1 26 0.8 33.4
08:45 1023 30.21 852 25.16 20.8 69.5 26 0.9 33.6
08:50 1023 30.21 852 25.16 21.1 70.1 28 1.9 35.4
08:55 1023 30.21 852 25.16 21.5 70.6 27 2 35.6
09:00 1023 30.21 852 25.16 20.7 69.2 31 3.1 37.6
09:05 1023 30.21 852 25.16 21.2 70.2 29 2.8 37
09:10 1023 30.21 852 25.16 21.8 71.2 27 1.9 35.5
09:15 1023 30.21 852 25.16 22.4 72.3 22 -0.1 31.8
09:20 1023 30.21 852 25.16 22.5 72.5 24 0.9 33.5
09:25 1023 30.21 852 25.16 22.6 72.7 25 1.8 35.2
09:30 1023 30.21 852 25.16 22.3 72.2 26 2.3 36.2
09:35 1023 30.21 852 25.16 22.3 72.1 26 2.2 35.9
09:40 1023 30.21 852 25.16 22.2 71.9 26 2.2 35.9
09:45 1023 30.21 852 25.16 22.2 72 26 1.9 35.4
09:50 1023 30.21 852 25.16 22.4 72.3 25 1.7 35.1
09:55 1023 30.21 852 25.16 22.8 73 25 1.9 35.4
10:00 1023 30.21 852 25.16 23 73.3 26 2.9 37.2
10:05 1023 30.21 852 25.16 22.8 73 25 2 35.6
10:10 1023 30.21 852 25.16 23.3 73.9 25 2.5 36.5
10:15 1023 30.21 852 25.16 23.7 74.7 26 3.3 37.9
10:20 1023 30.21 852 25.16 23.1 73.5 25 2 35.5
10:25 1023 30.21 852 25.16 23.7 74.7 24 2.5 36.4
10:30 1023 30.21 852 25.16 23.9 74.9 24 2.4 36.4
10:35 1023 30.21 852 25.16 24.2 75.5 22 1.5 34.8
10:40 1023 30.21 852 25.16 24.5 76.1 23 2.1 35.7
10:45 1023 30.21 852 25.16 24.9 76.8 22 2 35.5
10:50 1022 30.18 852 25.16 25.2 77.3 23 2.7 36.8
10:55 1022 30.18 852 25.16 24.6 76.3 25 3.4 38
11:00 1022 30.18 852 25.16 24.8 76.7 23 2.6 36.7
11:05 1022 30.18 852 25.16 24.6 76.4 24 2.9 37.3
11:10 1022 30.18 852 25.16 24.7 76.4 24 2.9 37.1
11:15 1022 30.18 852 25.16 25.3 77.5 23 3.2 37.8
11:20 1022 30.18 852 25.16 25 77 25 3.8 38.8
11:25 1022 30.18 852 25.16 25.3 77.6 22 2.2 35.9
11:30 1022 30.18 851 25.13 26.3 79.3 23 3.9 39
11:35 1022 30.18 851 25.13 26.3 79.3 25 4.9 40.8
11:40 1022 30.18 851 25.13 25.6 78.1 25 4.2 39.5
11:45 1022 30.18 851 25.13 25.5 77.9 23 3.3 38
11:50 1022 30.18 851 25.13 26.4 79.5 20 2.2 36
11:55 1022 30.18 851 25.13 26.8 80.2 19 1.8 35.2
12:00 1022 30.18 851 25.13 27.1 80.7 19 1.5 34.6
12:05 1022 30.18 851 25.13 27 80.6 20 2.1 35.8
12:10 1022 30.18 851 25.13 26.6 79.8 19 1.7 35.1
12:15 1022 30.18 851 25.13 26.9 80.4 19 1.7 35
12:20 1022 30.18 851 25.13 27.5 81.5 18 1.1 34
12:25 1022 30.18 851 25.13 27.4 81.2 17 0.4 32.7
12:30 1022 30.18 851 25.13 27.8 82.1 16 0.2 32.4
12:35 1022 30.18 851 25.13 27.2 80.9 18 0.8 33.4
12:40 1022 30.18 851 25.13 26.4 79.6 19 0.9 33.6
12:45 1022 30.18 851 25.13 26.9 80.5 18 0.7 33.3
12:50 1022 30.18 851 25.13 27.5 81.5 17 0.3 32.6
12:55 1022 30.18 851 25.13 27.9 82.2 17 1 33.9
13:00 1022 30.18 851 25.13 27.9 82.3 17 1.3 34.3
13:05 1022 30.18 851 25.13 28.1 82.5 18 1.6 35
13:10 1022 30.18 851 25.13 27.9 82.2 19 2.6 36.8
13:15 1022 30.18 851 25.13 28.2 82.8 18 1.9 35.4
13:20 1022 30.18 851 25.13 28.3 82.9 17 0.9 33.7
13:25 1022 30.18 851 25.13 28.9 84 17 2.1 35.7
13:30 1022 30.18 851 25.13 28.4 83.2 17 1.4 34.5
13:35 1022 30.18 851 25.13 28.7 83.7 17 1.2 34.2
13:40 1022 30.18 851 25.13 29 84.3 15 0.5 33
13:45 1022 30.18 851 25.13 27.3 81.2 18 0.8 33.5
13:50 1022 30.18 851 25.13 27.2 81 17 0.1 32.2
13:55 1022 30.18 851 25.13 27.3 81.1 18 0.9 33.6
14:00 1021 30.15 851 25.13 27.8 82.1 17 0.7 33.2
14:05 1021 30.15 851 25.13 27.7 81.8 18 1.7 35.1
14:10 1021 30.15 850 25.1 28.5 83.2 17 1.5 34.7
14:15 1021 30.15 850 25.1 29.3 84.7 17 2.1 35.7
14:20 1021 30.15 850 25.1 29.8 85.7 15 1.2 34.1
14:25 1021 30.15 850 25.1 30.1 86.2 15 0.7 33.3
14:30 1021 30.15 850 25.1 29.8 85.7 16 2 35.6
14:35 1021 30.15 850 25.1 28.3 82.9 18 1.9 35.5
14:40 1021 30.15 850 25.1 28.5 83.2 17 1.5 34.8
14:45 1021 30.15 850 25.1 28.9 83.9 17 1.9 35.5
14:50 1021 30.15 850 25.1 29.3 84.7 15 0.4 32.7
14:55 1021 30.15 850 25.1 28.8 83.8 15 -0.3 31.4
15:00 1021 30.15 850 25.1 28.7 83.7 17 1.5 34.7
15:05 1021 30.15 850 25.1 28.9 84.1 15 0.5 32.9
15:10 1021 30.15 850 25.1 29 84.3 15 0 32.1
15:15 1021 30.15 850 25.1 29.4 84.9 16 0.9 33.6
15:20 1021 30.15 850 25.1 29.6 85.2 16 1.5 34.8
15:25 1021 30.15 850 25.1 29.7 85.5 16 1.4 34.5
15:30 1021 30.15 850 25.1 29.9 85.9 15 1 33.8
15:35 1021 30.15 850 25.1 29.8 85.7 16 1.5 34.7
15:40 1021 30.15 850 25.1 30 85.9 16 1.7 35.1
15:45 1021 30.15 850 25.1 29.7 85.4 17 2.3 36.2
15:50 1021 30.15 850 25.1 30.1 86.2 15 1.4 34.5
15:55 1021 30.15 850 25.1 30.5 86.9 17 2.8 37
16:00 1021 30.15 850 25.1 29.7 85.4 17 2.1 35.8
16:05 1021 30.15 850 25.1 29.2 84.6 17 2.4 36.3
16:10 1021 30.15 850 25.1 30 86 16 1.5 34.8
16:15 1021 30.15 850 25.1 30.3 86.5 15 1.2 34.2
16:20 1021 30.15 850 25.1 31.2 88.1 15 1.6 34.9
16:25 1021 30.15 850 25.1 31.6 88.8 15 1.8 35.2
16:30 1020 30.12 850 25.1 31.1 88 16 3 37.4
16:35 1020 30.12 850 25.1 29.6 85.3 17 2.2 36
16:40 1020 30.12 850 25.1 28.9 84 17 1.9 35.4
16:45 1020 30.12 850 25.1 28.9 84.1 17 1.8 35.2
16:50 1020 30.12 850 25.1 29 84.2 18 2.8 37
16:55 1020 30.12 849 25.07 29.9 85.8 17 2.2 35.9
17:00 1020 30.12 850 25.1 30.1 86.1 17 2.7 36.8
17:05 1020 30.12 850 25.1 30 86 17 2.8 37.1
17:10 1020 30.12 850 25.1 30.2 86.3 15 1.4 34.5
17:15 1020 30.12 850 25.1 30.2 86.4 17 2.9 37.2
17:20 1020 30.12 849 25.07 30.2 86.4 16 2.1 35.8
17:25 1020 30.12 849 25.07 31.3 88.3 15 1.6 34.9
17:30 1020 30.12 849 25.07 31.8 89.2 15 2.7 36.9
17:35 1020 30.12 849 25.07 31.8 89.2 15 2.3 36.2
17:40 1020 30.12 849 25.07 31.7 89 15 2.5 36.5
17:45 1020 30.12 849 25.07 31.8 89.3 15 2.6 36.6
17:50 1020 30.12 849 25.07 31.8 89.3 15 2 35.6
17:55 1020 30.12 849 25.07 31.2 88.2 16 2.5 36.6
18:00 1020 30.12 849 25.07 29.8 85.6 16 1.9 35.4
18:05 1020 30.12 849 25.07 29.9 85.8 16 1.3 34.4
18:10 1020 30.12 849 25.07 30.2 86.3 15 0.9 33.6
18:15 1020 30.12 849 25.07 30.2 86.4 15 1.3 34.3
18:20 1020 30.12 849 25.07 30.1 86.1 15 0.6 33.1
18:25 1020 30.12 849 25.07 29.9 85.7 15 0.7 33.2
18:30 1020 30.12 849 25.07 30.2 86.4 15 0.9 33.6
18:35 1020 30.12 849 25.07 30.6 87 15 1.3 34.4
18:40 1020 30.12 849 25.07 30.3 86.6 15 1.6 34.9
18:45 1020 30.12 849 25.07 30.9 87.7 15 1.5 34.8
18:50 1020 30.12 849 25.07 31.4 88.6 14 1.6 34.9
18:55 1020 30.12 849 25.07 31.4 88.6 15 1.8 35.3
19:00 1020 30.12 849 25.07 30.8 87.5 15 1.6 35
19:05 1020 30.12 849 25.07 30.2 86.3 15 1 33.8
19:10 1020 30.12 849 25.07 30 86.1 16 2.1 35.8
19:15 1020 30.12 849 25.07 29.9 85.8 16 1.9 35.4
19:20 1020 30.12 849 25.07 29.5 85.1 17 2.3 36.2
19:25 1020 30.12 849 25.07 29.2 84.6 19 3.5 38.4
19:30 1020 30.12 849 25.07 29.1 84.5 19 3.7 38.7
19:35 1020 30.12 849 25.07 28.9 84.1 20 4.3 39.7
19:40 1020 30.12 849 25.07 28.8 83.9 20 4.2 39.5
19:45 1020 30.12 849 25.07 28.5 83.3 23 5.5 41.9
19:50 1020 30.12 849 25.07 28.4 83 23 5.3 41.5
19:55 1020 30.12 849 25.07 28.2 82.8 23 5.4 41.7
20:00 1020 30.12 849 25.07 28.1 82.5 23 5.5 41.9
20:05 1020 30.12 849 25.07 27.8 82.1 22 4.6 40.3
20:10 1020 30.12 849 25.07 27.6 81.6 23 5.1 41.2
20:15 1020 30.12 849 25.07 27.4 81.3 23 5 41
20:20 1020 30.12 849 25.07 27.3 81.1 23 4.6 40.3
20:25 1020 30.12 849 25.07 27.2 80.9 24 5 41
20:30 1020 30.12 849 25.07 27 80.6 24 4.7 40.5
20:35 1020 30.12 849 25.07 26.7 80.1 24 4.8 40.6
20:40 1020 30.12 849 25.07 26.4 79.6 25 5.3 41.6
20:45 1020 30.12 849 25.07 26.1 78.9 28 6.3 43.4
20:50 1020 30.12 849 25.07 25.7 78.3 30 7.2 45
20:55 1020 30.12 849 25.07 25.3 77.5 29 6.1 43.1
21:00 1020 30.12 849 25.07 25.2 77.3 29 6.1 42.9
21:05 1020 30.12 849 25.07 24.5 76.1 30 6.2 43.2
21:10 1020 30.12 849 25.07 23.7 74.6 33 6.6 43.9
21:15 1020 30.12 849 25.07 23.1 73.6 34 6.6 44
21:20 1020 30.12 850 25.1 22.8 73.1 34 6.5 43.6
21:25 1020 30.12 850 25.1 22.6 72.6 37 7.2 45
21:30 1020 30.12 850 25.1 22.3 72.1 37 7.2 45
21:35 1021 30.15 850 25.1 22 71.5 36 6.3 43.3
21:40 1021 30.15 850 25.1 21.9 71.4 34 5.7 42.3
21:45 1021 30.15 850 25.1 22 71.6 33 5.3 41.6
21:50 1021 30.15 850 25.1 21.9 71.5 31 4 39.3
21:55 1021 30.15 850 25.1 22.1 71.8 30 4.1 39.4
22:00 1021 30.15 850 25.1 22.3 72.2 30 4.2 39.5
22:05 1021 30.15 850 25.1 22.1 71.8 31 4.4 40
22:10 1021 30.15 850 25.1 21.8 71.2 32 4.6 40.4
22:15 1021 30.15 850 25.1 21.5 70.7 33 4.6 40.3
22:20 1021 30.15 850 25.1 21.3 70.3 33 4.5 40.1
22:25 1021 30.15 850 25.1 21.2 70.1 29 2.5 36.5
22:30 1021 30.15 850 25.1 21.1 70 30 3.1 37.6
22:35 1021 30.15 850 25.1 20.9 69.7 29 2.4 36.4
22:40 1021 30.15 850 25.1 21.3 70.4 28 2.4 36.4
22:45 1021 30.15 850 25.1 21.1 69.9 30 2.9 37.2
22:50 1021 30.15 850 25.1 20.9 69.5 29 2.5 36.5
22:55 1021 30.15 850 25.1 20.7 69.2 30 2.7 36.9
23:00 1021 30.15 850 25.1 20.3 68.6 31 2.9 37.3
23:05 1021 30.15 850 25.1 20.3 68.5 31 3 37.3
23:10 1021 30.15 850 25.1 20 67.9 32 2.8 37
23:15 1021 30.15 850 25.1 19.9 67.9 30 2.1 35.8
23:20 1021 30.15 850 25.1 20.2 68.4 30 2.2 35.9
23:25 1021 30.15 850 25.1 20 68 31 2.3 36.2
23:30 1021 30.15 850 25.1 19.9 67.8 29 1.4 34.4
23:35 1021 30.15 850 25.1 19.9 67.9 30 2.2 35.9
23:40 1021 30.15 850 25.1 19.4 66.8 33 2.8 37
23:45 1021 30.15 850 25.1 19 66.3 34 3 37.4
23:50 1021 30.15 850 25.1 18.8 65.8 35 3 37.3
23:55 1021 30.15 850 25.1 18.6 65.4 37 3.8 38.8
24:00 1021 30.15 850 25.1 18.5 65.3 35 2.7 36.9